sensor_id;sensor_type;location;lat;lon;timestamp;pressure;altitude;pressure_sealevel;temperature;humidity
46015;BME280;36844;51.898;-0.874;2023-04-27T00:01:53;100712.47;;;18.37;
46015;BME280;36844;51.898;-0.874;2023-04-27T00:04:18;100708.22;;;18.36;
46015;BME280;36844;51.898;-0.874;2023-04-27T00:06:44;100705.56;;;18.33;
46015;BME280;36844;51.898;-0.874;2023-04-27T00:09:09;100702.84;;;18.33;
46015;BME280;36844;51.898;-0.874;2023-04-27T00:11:35;100703.63;;;18.30;
46015;BME280;36844;51.898;-0.874;2023-04-27T00:14:00;100694.78;;;18.29;
46015;BME280;36844;51.898;-0.874;2023-04-27T00:16:25;100695.91;;;18.28;
46015;BME280;36844;51.898;-0.874;2023-04-27T00:18:50;100693.66;;;18.27;
46015;BME280;36844;51.898;-0.874;2023-04-27T00:21:16;100695.94;;;18.25;
46015;BME280;36844;51.898;-0.874;2023-04-27T00:23:41;100692.88;;;18.23;
46015;BME280;36844;51.898;-0.874;2023-04-27T00:26:06;100694.03;;;18.22;
46015;BME280;36844;51.898;-0.874;2023-04-27T00:28:32;100694.47;;;18.20;
46015;BME280;36844;51.898;-0.874;2023-04-27T00:30:57;100689.44;;;18.19;
46015;BME280;36844;51.898;-0.874;2023-04-27T00:33:22;100687.09;;;18.17;
46015;BME280;36844;51.898;-0.874;2023-04-27T00:35:47;100686.34;;;18.17;
46015;BME280;36844;51.898;-0.874;2023-04-27T00:38:12;100682.50;;;18.14;
46015;BME280;36844;51.898;-0.874;2023-04-27T00:40:38;100672.88;;;18.13;
46015;BME280;36844;51.898;-0.874;2023-04-27T00:43:03;100675.97;;;18.12;
46015;BME280;36844;51.898;-0.874;2023-04-27T00:45:28;100673.66;;;18.10;
46015;BME280;36844;51.898;-0.874;2023-04-27T00:47:54;100673.28;;;18.08;
46015;BME280;36844;51.898;-0.874;2023-04-27T00:50:28;100665.56;;;18.07;
46015;BME280;36844;51.898;-0.874;2023-04-27T00:52:54;100657.88;;;18.05;
46015;BME280;36844;51.898;-0.874;2023-04-27T00:55:20;100654.44;;;18.05;
46015;BME280;36844;51.898;-0.874;2023-04-27T00:57:46;100643.25;;;18.03;
46015;BME280;36844;51.898;-0.874;2023-04-27T01:00:11;100643.69;;;18.01;
46015;BME280;36844;51.898;-0.874;2023-04-27T01:02:37;100635.97;;;18.00;
46015;BME280;36844;51.898;-0.874;2023-04-27T01:05:02;100628.28;;;17.98;
46015;BME280;36844;51.898;-0.874;2023-04-27T01:07:28;100631.38;;;17.97;
46015;BME280;36844;51.898;-0.874;2023-04-27T01:09:53;100624.41;;;17.96;
46015;BME280;36844;51.898;-0.874;2023-04-27T01:12:18;100620.97;;;17.95;
46015;BME280;36844;51.898;-0.874;2023-04-27T01:14:44;100626.00;;;17.93;
46015;BME280;36844;51.898;-0.874;2023-04-27T01:17:09;100627.91;;;17.93;
46015;BME280;36844;51.898;-0.874;2023-04-27T01:19:34;100622.13;;;17.91;
46015;BME280;36844;51.898;-0.874;2023-04-27T01:22:00;100628.69;;;17.90;
46015;BME280;36844;51.898;-0.874;2023-04-27T01:24:25;100624.84;;;17.87;
46015;BME280;36844;51.898;-0.874;2023-04-27T01:26:50;100632.16;;;17.87;
46015;BME280;36844;51.898;-0.874;2023-04-27T01:29:17;100634.06;;;17.86;
46015;BME280;36844;51.898;-0.874;2023-04-27T01:31:43;100633.72;;;17.84;
46015;BME280;36844;51.898;-0.874;2023-04-27T01:34:08;100634.84;;;17.83;
46015;BME280;36844;51.898;-0.874;2023-04-27T01:36:34;100634.47;;;17.81;
46015;BME280;36844;51.898;-0.874;2023-04-27T01:38:59;100644.50;;;17.81;
46015;BME280;36844;51.898;-0.874;2023-04-27T01:41:25;100644.88;;;17.79;
46015;BME280;36844;51.898;-0.874;2023-04-27T01:43:50;100654.88;;;17.78;
46015;BME280;36844;51.898;-0.874;2023-04-27T01:46:15;100649.13;;;17.77;
46015;BME280;36844;51.898;-0.874;2023-04-27T01:48:40;100646.03;;;17.74;
46015;BME280;36844;51.898;-0.874;2023-04-27T01:51:06;100638.38;;;17.73;
46015;BME280;36844;51.898;-0.874;2023-04-27T01:53:31;100653.75;;;17.72;
46015;BME280;36844;51.898;-0.874;2023-04-27T01:55:56;100650.69;;;17.70;
46015;BME280;36844;51.898;-0.874;2023-04-27T01:58:23;100657.22;;;17.69;
46015;BME280;36844;51.898;-0.874;2023-04-27T02:00:49;100659.16;;;17.69;
46015;BME280;36844;51.898;-0.874;2023-04-27T02:03:14;100666.81;;;17.67;
46015;BME280;36844;51.898;-0.874;2023-04-27T02:05:39;100659.91;;;17.66;
46015;BME280;36844;51.898;-0.874;2023-04-27T02:08:05;100660.28;;;17.64;
46015;BME280;36844;51.898;-0.874;2023-04-27T02:10:31;100656.03;;;17.63;
46015;BME280;36844;51.898;-0.874;2023-04-27T02:12:56;100654.53;;;17.62;
46015;BME280;36844;51.898;-0.874;2023-04-27T02:15:21;100651.44;;;17.60;
46015;BME280;36844;51.898;-0.874;2023-04-27T02:17:46;100656.84;;;17.60;
46015;BME280;36844;51.898;-0.874;2023-04-27T02:20:11;100652.59;;;17.59;
46015;BME280;36844;51.898;-0.874;2023-04-27T02:22:43;100655.69;;;17.58;
46015;BME280;36844;51.898;-0.874;2023-04-27T02:25:09;100663.00;;;17.57;
46015;BME280;36844;51.898;-0.874;2023-04-27T02:27:37;100653.38;;;17.56;
46015;BME280;36844;51.898;-0.874;2023-04-27T02:30:04;100657.63;;;17.54;
46015;BME280;36844;51.898;-0.874;2023-04-27T02:32:29;100649.53;;;17.54;
46015;BME280;36844;51.898;-0.874;2023-04-27T02:34:55;100650.69;;;17.53;
46015;BME280;36844;51.898;-0.874;2023-04-27T02:37:20;100642.97;;;17.51;
46015;BME280;36844;51.898;-0.874;2023-04-27T02:39:45;100644.16;;;17.50;
46015;BME280;36844;51.898;-0.874;2023-04-27T02:42:11;100636.44;;;17.49;
46015;BME280;36844;51.898;-0.874;2023-04-27T02:44:36;100644.53;;;17.49;
46015;BME280;36844;51.898;-0.874;2023-04-27T02:47:01;100642.25;;;17.47;
46015;BME280;36844;51.898;-0.874;2023-04-27T02:49:27;100635.31;;;17.46;
46015;BME280;36844;51.898;-0.874;2023-04-27T02:51:52;100629.16;;;17.46;
46015;BME280;36844;51.898;-0.874;2023-04-27T02:54:17;100629.53;;;17.44;
46015;BME280;36844;51.898;-0.874;2023-04-27T02:56:42;100629.16;;;17.42;
46015;BME280;36844;51.898;-0.874;2023-04-27T02:59:08;100623.00;;;17.42;
46015;BME280;36844;51.898;-0.874;2023-04-27T03:01:33;100620.69;;;17.40;
46015;BME280;36844;51.898;-0.874;2023-04-27T03:03:58;100622.63;;;17.40;
46015;BME280;36844;51.898;-0.874;2023-04-27T03:06:23;100612.25;;;17.38;
46015;BME280;36844;51.898;-0.874;2023-04-27T03:08:49;100614.16;;;17.38;
46015;BME280;36844;51.898;-0.874;2023-04-27T03:11:14;100622.22;;;17.38;
46015;BME280;36844;51.898;-0.874;2023-04-27T03:13:40;100626.50;;;17.35;
46015;BME280;36844;51.898;-0.874;2023-04-27T03:16:08;100626.50;;;17.35;
46015;BME280;36844;51.898;-0.874;2023-04-27T03:18:34;100630.31;;;17.34;
46015;BME280;36844;51.898;-0.874;2023-04-27T03:21:06;100625.28;;;17.33;
46015;BME280;36844;51.898;-0.874;2023-04-27T03:23:32;100629.94;;;17.32;
46015;BME280;36844;51.898;-0.874;2023-04-27T03:25:57;100620.34;;;17.31;
46015;BME280;36844;51.898;-0.874;2023-04-27T03:28:22;100618.78;;;17.30;
46015;BME280;36844;51.898;-0.874;2023-04-27T03:30:47;100615.31;;;17.30;
46015;BME280;36844;51.898;-0.874;2023-04-27T03:33:12;100610.34;;;17.28;
46015;BME280;36844;51.898;-0.874;2023-04-27T03:35:38;100613.03;;;17.28;
46015;BME280;36844;51.898;-0.874;2023-04-27T03:38:03;100598.38;;;17.26;
46015;BME280;36844;51.898;-0.874;2023-04-27T03:40:28;100595.69;;;17.26;
46015;BME280;36844;51.898;-0.874;2023-04-27T03:42:53;100587.63;;;17.26;
46015;BME280;36844;51.898;-0.874;2023-04-27T03:45:19;100588.78;;;17.25;
46015;BME280;36844;51.898;-0.874;2023-04-27T03:47:46;100588.03;;;17.24;
46015;BME280;36844;51.898;-0.874;2023-04-27T03:50:11;100587.25;;;17.24;
46015;BME280;36844;51.898;-0.874;2023-04-27T03:52:36;100587.63;;;17.22;
46015;BME280;36844;51.898;-0.874;2023-04-27T03:55:02;100592.25;;;17.22;
46015;BME280;36844;51.898;-0.874;2023-04-27T03:57:27;100586.09;;;17.21;
46015;BME280;36844;51.898;-0.874;2023-04-27T03:59:52;100581.13;;;17.20;
46015;BME280;36844;51.898;-0.874;2023-04-27T04:02:17;100580.34;;;17.19;
46015;BME280;36844;51.898;-0.874;2023-04-27T04:04:43;100582.25;;;17.19;
46015;BME280;36844;51.898;-0.874;2023-04-27T04:07:08;100572.63;;;17.18;
46015;BME280;36844;51.898;-0.874;2023-04-27T04:09:33;100584.16;;;17.18;
46015;BME280;36844;51.898;-0.874;2023-04-27T04:11:58;100579.94;;;17.17;
46015;BME280;36844;51.898;-0.874;2023-04-27T04:14:23;100577.25;;;17.17;
46015;BME280;36844;51.898;-0.874;2023-04-27T04:16:49;100581.13;;;17.16;
46015;BME280;36844;51.898;-0.874;2023-04-27T04:19:14;100574.19;;;17.15;
46015;BME280;36844;51.898;-0.874;2023-04-27T04:21:39;100581.13;;;17.16;
46015;BME280;36844;51.898;-0.874;2023-04-27T04:24:05;100578.78;;;17.15;
46015;BME280;36844;51.898;-0.874;2023-04-27T04:26:30;100578.00;;;17.14;
46015;BME280;36844;51.898;-0.874;2023-04-27T04:28:55;100574.56;;;17.14;
46015;BME280;36844;51.898;-0.874;2023-04-27T04:31:21;100572.28;;;17.12;
46015;BME280;36844;51.898;-0.874;2023-04-27T04:33:47;100568.81;;;17.12;
46015;BME280;36844;51.898;-0.874;2023-04-27T04:36:12;100575.31;;;17.11;
46015;BME280;36844;51.898;-0.874;2023-04-27T04:38:37;100566.47;;;17.10;
46015;BME280;36844;51.898;-0.874;2023-04-27T04:41:02;100558.41;;;17.10;
46015;BME280;36844;51.898;-0.874;2023-04-27T04:43:27;100553.03;;;17.10;
46015;BME280;36844;51.898;-0.874;2023-04-27T04:45:53;100551.50;;;17.09;
46015;BME280;36844;51.898;-0.874;2023-04-27T04:48:18;100554.19;;;17.09;
46015;BME280;36844;51.898;-0.874;2023-04-27T04:50:44;100551.13;;;17.07;
46015;BME280;36844;51.898;-0.874;2023-04-27T04:53:09;100552.28;;;17.06;
46015;BME280;36844;51.898;-0.874;2023-04-27T04:55:35;100544.22;;;17.06;
46015;BME280;36844;51.898;-0.874;2023-04-27T04:58:00;100546.13;;;17.06;
46015;BME280;36844;51.898;-0.874;2023-04-27T05:00:25;100554.59;;;17.04;
46015;BME280;36844;51.898;-0.874;2023-04-27T05:02:51;100551.91;;;17.04;
46015;BME280;36844;51.898;-0.874;2023-04-27T05:05:17;100550.34;;;17.03;
46015;BME280;36844;51.898;-0.874;2023-04-27T05:07:42;100546.13;;;17.02;
46015;BME280;36844;51.898;-0.874;2023-04-27T05:10:07;100551.50;;;17.02;
46015;BME280;36844;51.898;-0.874;2023-04-27T05:12:33;100560.75;;;17.01;
46015;BME280;36844;51.898;-0.874;2023-04-27T05:14:58;100559.19;;;17.00;
46015;BME280;36844;51.898;-0.874;2023-04-27T05:17:23;100558.41;;;17.00;
46015;BME280;36844;51.898;-0.874;2023-04-27T05:19:48;100548.06;;;16.98;
46015;BME280;36844;51.898;-0.874;2023-04-27T05:22:14;100548.06;;;16.98;
46015;BME280;36844;51.898;-0.874;2023-04-27T05:24:39;100549.97;;;16.98;
46015;BME280;36844;51.898;-0.874;2023-04-27T05:27:04;100556.13;;;16.98;
46015;BME280;36844;51.898;-0.874;2023-04-27T05:29:30;100558.44;;;16.96;
46015;BME280;36844;51.898;-0.874;2023-04-27T05:31:55;100556.88;;;16.95;
46015;BME280;36844;51.898;-0.874;2023-04-27T05:34:20;100568.41;;;16.96;
46015;BME280;36844;51.898;-0.874;2023-04-27T05:36:46;100563.41;;;16.94;
46015;BME280;36844;51.898;-0.874;2023-04-27T05:39:11;100562.69;;;16.94;
46015;BME280;36844;51.898;-0.874;2023-04-27T05:41:36;100565.72;;;16.92;
46015;BME280;36844;51.898;-0.874;2023-04-27T05:44:02;100568.41;;;16.92;
46015;BME280;36844;51.898;-0.874;2023-04-27T05:46:27;100563.03;;;16.92;
46015;BME280;36844;51.898;-0.874;2023-04-27T05:48:52;100568.41;;;16.92;
46015;BME280;36844;51.898;-0.874;2023-04-27T05:51:17;100561.91;;;16.93;
46015;BME280;36844;51.898;-0.874;2023-04-27T05:53:43;100563.81;;;16.93;
46015;BME280;36844;51.898;-0.874;2023-04-27T05:56:08;100563.41;;;16.94;
46015;BME280;36844;51.898;-0.874;2023-04-27T05:58:35;100575.69;;;16.95;
46015;BME280;36844;51.898;-0.874;2023-04-27T06:01:00;100573.44;;;16.97;
46015;BME280;36844;51.898;-0.874;2023-04-27T06:03:27;100568.41;;;16.99;
46015;BME280;36844;51.898;-0.874;2023-04-27T06:05:53;100555.38;;;17.01;
46015;BME280;36844;51.898;-0.874;2023-04-27T06:08:19;100553.03;;;17.03;
46015;BME280;36844;51.898;-0.874;2023-04-27T06:10:45;100554.97;;;17.06;
46015;BME280;36844;51.898;-0.874;2023-04-27T06:13:10;100553.44;;;17.09;
46015;BME280;36844;51.898;-0.874;2023-04-27T06:15:35;100550.75;;;17.12;
46015;BME280;36844;51.898;-0.874;2023-04-27T06:18:00;100550.34;;;17.17;
46015;BME280;36844;51.898;-0.874;2023-04-27T06:20:26;100548.44;;;17.21;
46015;BME280;36844;51.898;-0.874;2023-04-27T06:22:51;100549.16;;;17.25;
46015;BME280;36844;51.898;-0.874;2023-04-27T06:25:16;100543.41;;;17.30;
46015;BME280;36844;51.898;-0.874;2023-04-27T06:27:41;100546.50;;;17.36;
46015;BME280;36844;51.898;-0.874;2023-04-27T06:30:07;100537.22;;;17.40;
46015;BME280;36844;51.898;-0.874;2023-04-27T06:32:32;100539.16;;;17.47;
46015;BME280;36844;51.898;-0.874;2023-04-27T06:34:57;100529.88;;;17.51;
46015;BME280;36844;51.898;-0.874;2023-04-27T06:37:23;100532.19;;;17.56;
46015;BME280;36844;51.898;-0.874;2023-04-27T06:39:48;100522.56;;;17.62;
46015;BME280;36844;51.898;-0.874;2023-04-27T06:42:13;100520.22;;;17.68;
46015;BME280;36844;51.898;-0.874;2023-04-27T06:44:38;100525.59;;;17.71;
46015;BME280;36844;51.898;-0.874;2023-04-27T06:47:04;100538.69;;;17.77;
46015;BME280;36844;51.898;-0.874;2023-04-27T06:49:29;100534.41;;;17.83;
46015;BME280;36844;51.898;-0.874;2023-04-27T06:51:55;100529.78;;;17.87;
46015;BME280;36844;51.898;-0.874;2023-04-27T06:54:20;100535.13;;;17.90;
46015;BME280;36844;51.898;-0.874;2023-04-27T06:56:45;100533.19;;;17.94;
46015;BME280;36844;51.898;-0.874;2023-04-27T06:59:11;100537.81;;;17.97;
46015;BME280;36844;51.898;-0.874;2023-04-27T07:01:36;100534.72;;;17.99;
46015;BME280;36844;51.898;-0.874;2023-04-27T07:04:04;100533.53;;;18.03;
46015;BME280;36844;51.898;-0.874;2023-04-27T07:06:30;100532.75;;;18.06;
46015;BME280;36844;51.898;-0.874;2023-04-27T07:08:56;100528.13;;;18.07;
46015;BME280;36844;51.898;-0.874;2023-04-27T07:11:22;100536.97;;;18.11;
46015;BME280;36844;51.898;-0.874;2023-04-27T07:13:47;100539.28;;;18.12;
46015;BME280;36844;51.898;-0.874;2023-04-27T07:16:12;100545.03;;;18.14;
46015;BME280;36844;51.898;-0.874;2023-04-27T07:18:37;100543.88;;;18.15;
46015;BME280;36844;51.898;-0.874;2023-04-27T07:21:03;100542.31;;;18.18;
46015;BME280;36844;51.898;-0.874;2023-04-27T07:23:28;100543.06;;;18.18;
46015;BME280;36844;51.898;-0.874;2023-04-27T07:25:53;100539.25;;;18.19;
46015;BME280;36844;51.898;-0.874;2023-04-27T07:28:18;100544.19;;;18.21;
46015;BME280;36844;51.898;-0.874;2023-04-27T07:30:44;100551.91;;;18.22;
46015;BME280;36844;51.898;-0.874;2023-04-27T07:33:09;100548.84;;;18.24;
46015;BME280;36844;51.898;-0.874;2023-04-27T07:35:35;100543.47;;;18.24;
46015;BME280;36844;51.898;-0.874;2023-04-27T07:38:01;100541.50;;;18.24;
46015;BME280;36844;51.898;-0.874;2023-04-27T07:40:27;100536.88;;;18.25;
46015;BME280;36844;51.898;-0.874;2023-04-27T07:42:52;100535.72;;;18.26;
46015;BME280;36844;51.898;-0.874;2023-04-27T07:45:18;100531.09;;;18.26;
46015;BME280;36844;51.898;-0.874;2023-04-27T07:47:43;100527.25;;;18.27;
46015;BME280;36844;51.898;-0.874;2023-04-27T07:50:08;100532.66;;;18.27;
46015;BME280;36844;51.898;-0.874;2023-04-27T07:52:34;100532.66;;;18.27;
46015;BME280;36844;51.898;-0.874;2023-04-27T07:55:00;100521.88;;;18.27;
46015;BME280;36844;51.898;-0.874;2023-04-27T07:57:25;100529.97;;;18.27;
46015;BME280;36844;51.898;-0.874;2023-04-27T07:59:50;100523.78;;;18.27;
46015;BME280;36844;51.898;-0.874;2023-04-27T08:02:16;100524.56;;;18.27;
46015;BME280;36844;51.898;-0.874;2023-04-27T08:04:42;100514.16;;;18.26;
46015;BME280;36844;51.898;-0.874;2023-04-27T08:07:07;100518.78;;;18.25;
46015;BME280;36844;51.898;-0.874;2023-04-27T08:09:32;100524.16;;;18.25;
46015;BME280;36844;51.898;-0.874;2023-04-27T08:11:57;100529.56;;;18.25;
46015;BME280;36844;51.898;-0.874;2023-04-27T08:14:23;100539.56;;;18.25;
46015;BME280;36844;51.898;-0.874;2023-04-27T08:16:48;100538.06;;;18.24;
46015;BME280;36844;51.898;-0.874;2023-04-27T08:19:13;100533.81;;;18.23;
46015;BME280;36844;51.898;-0.874;2023-04-27T08:21:38;100526.88;;;18.22;
46015;BME280;36844;51.898;-0.874;2023-04-27T08:24:04;100526.88;;;18.22;
46015;BME280;36844;51.898;-0.874;2023-04-27T08:26:30;100525.34;;;18.21;
46015;BME280;36844;51.898;-0.874;2023-04-27T08:28:55;100526.53;;;18.20;
46015;BME280;36844;51.898;-0.874;2023-04-27T08:31:21;100521.16;;;18.20;
46015;BME280;36844;51.898;-0.874;2023-04-27T08:33:47;100518.03;;;18.18;
46015;BME280;36844;51.898;-0.874;2023-04-27T08:36:12;100508.44;;;18.17;
46015;BME280;36844;51.898;-0.874;2023-04-27T08:38:37;100505.75;;;18.17;
46015;BME280;36844;51.898;-0.874;2023-04-27T08:41:02;100509.59;;;18.16;
46015;BME280;36844;51.898;-0.874;2023-04-27T08:43:31;100497.28;;;18.15;
46015;BME280;36844;51.898;-0.874;2023-04-27T08:45:56;100490.34;;;18.14;
46015;BME280;36844;51.898;-0.874;2023-04-27T08:48:22;100494.25;;;18.13;
46015;BME280;36844;51.898;-0.874;2023-04-27T08:50:48;100494.97;;;18.13;
46015;BME280;36844;51.898;-0.874;2023-04-27T08:53:20;100484.59;;;18.12;
46015;BME280;36844;51.898;-0.874;2023-04-27T08:55:46;100477.66;;;18.11;
46015;BME280;36844;51.898;-0.874;2023-04-27T08:58:12;100476.53;;;18.08;
46015;BME280;36844;51.898;-0.874;2023-04-27T09:00:40;100486.53;;;18.08;
46015;BME280;36844;51.898;-0.874;2023-04-27T09:03:24;100488.47;;;18.07;
46015;BME280;36844;51.898;-0.874;2023-04-27T09:05:50;100487.34;;;18.05;
46015;BME280;36844;51.898;-0.874;2023-04-27T09:08:15;100494.28;;;18.02;
46015;BME280;36844;51.898;-0.874;2023-04-27T09:10:47;100493.13;;;18.00;
46015;BME280;36844;51.898;-0.874;2023-04-27T09:13:13;100488.13;;;17.98;
46015;BME280;36844;51.898;-0.874;2023-04-27T09:15:42;100476.22;;;17.96;
46015;BME280;36844;51.898;-0.874;2023-04-27T09:18:10;100477.38;;;17.95;
46015;BME280;36844;51.898;-0.874;2023-04-27T09:20:41;100475.84;;;17.94;
46015;BME280;36844;51.898;-0.874;2023-04-27T09:23:06;100469.69;;;17.93;
46015;BME280;36844;51.898;-0.874;2023-04-27T09:25:31;100470.09;;;17.92;
46015;BME280;36844;51.898;-0.874;2023-04-27T09:27:58;100471.25;;;17.91;
46015;BME280;36844;51.898;-0.874;2023-04-27T09:30:28;100469.31;;;17.91;
46015;BME280;36844;51.898;-0.874;2023-04-27T09:32:54;100474.34;;;17.89;
46015;BME280;36844;51.898;-0.874;2023-04-27T09:35:24;100469.72;;;17.90;
46015;BME280;36844;51.898;-0.874;2023-04-27T09:37:50;100478.94;;;17.89;
46015;BME280;36844;51.898;-0.874;2023-04-27T09:40:19;100472.41;;;17.90;
46015;BME280;36844;51.898;-0.874;2023-04-27T09:42:47;100458.56;;;17.88;
46015;BME280;36844;51.898;-0.874;2023-04-27T09:45:12;100464.69;;;17.88;
46015;BME280;36844;51.898;-0.874;2023-04-27T09:47:38;100463.19;;;17.87;
46015;BME280;36844;51.898;-0.874;2023-04-27T09:50:03;100463.97;;;17.88;
46015;BME280;36844;51.898;-0.874;2023-04-27T09:52:29;100461.25;;;17.88;
46015;BME280;36844;51.898;-0.874;2023-04-27T09:54:54;100457.78;;;17.87;
46015;BME280;36844;51.898;-0.874;2023-04-27T09:57:29;100448.16;;;17.86;
46015;BME280;36844;51.898;-0.874;2023-04-27T10:00:05;100448.94;;;17.87;
46015;BME280;36844;51.898;-0.874;2023-04-27T10:05:41;100441.25;;;17.85;
46015;BME280;36844;51.898;-0.874;2023-04-27T10:08:06;100452.44;;;17.84;
46015;BME280;36844;51.898;-0.874;2023-04-27T10:10:41;100445.88;;;17.85;
46015;BME280;36844;51.898;-0.874;2023-04-27T10:13:06;100447.03;;;17.84;
46015;BME280;36844;51.898;-0.874;2023-04-27T10:15:31;100451.25;;;17.85;
46015;BME280;36844;51.898;-0.874;2023-04-27T10:18:02;100445.88;;;17.85;
46015;BME280;36844;51.898;-0.874;2023-04-27T10:20:31;100441.66;;;17.84;
46015;BME280;36844;51.898;-0.874;2023-04-27T10:22:57;100437.41;;;17.83;
46015;BME280;36844;51.898;-0.874;2023-04-27T10:25:24;100425.88;;;17.82;
46015;BME280;36844;51.898;-0.874;2023-04-27T10:30:19;100427.03;;;17.81;
46015;BME280;36844;51.898;-0.874;2023-04-27T10:32:54;100427.81;;;17.82;
46015;BME280;36844;51.898;-0.874;2023-04-27T10:35:20;100424.75;;;17.80;
46015;BME280;36844;51.898;-0.874;2023-04-27T10:37:46;100420.13;;;17.80;
46015;BME280;36844;51.898;-0.874;2023-04-27T10:40:12;100410.13;;;17.81;
46015;BME280;36844;51.898;-0.874;2023-04-27T10:42:42;100392.41;;;17.80;
46015;BME280;36844;51.898;-0.874;2023-04-27T10:45:07;100400.50;;;17.80;
46015;BME280;36844;51.898;-0.874;2023-04-27T10:47:43;100388.56;;;17.81;
46015;BME280;36844;51.898;-0.874;2023-04-27T10:50:09;100384.31;;;17.80;
46015;BME280;36844;51.898;-0.874;2023-04-27T10:52:38;100382.78;;;17.78;
46015;BME280;36844;51.898;-0.874;2023-04-27T10:55:25;100382.78;;;17.78;
46015;BME280;36844;51.898;-0.874;2023-04-27T10:57:50;100390.88;;;17.78;
46015;BME280;36844;51.898;-0.874;2023-04-27T11:02:47;100368.19;;;17.76;
46015;BME280;36844;51.898;-0.874;2023-04-27T11:05:20;100365.88;;;17.78;
46015;BME280;36844;51.898;-0.874;2023-04-27T11:07:46;100359.72;;;17.77;
46015;BME280;36844;51.898;-0.874;2023-04-27T11:10:15;100353.94;;;17.75;
46015;BME280;36844;51.898;-0.874;2023-04-27T11:12:41;100338.16;;;17.77;
46015;BME280;36844;51.898;-0.874;2023-04-27T11:15:06;100347.41;;;17.77;
46015;BME280;36844;51.898;-0.874;2023-04-27T11:17:32;100339.69;;;17.78;
46015;BME280;36844;51.898;-0.874;2023-04-27T11:19:57;100345.06;;;17.78;
46015;BME280;36844;51.898;-0.874;2023-04-27T11:22:22;100347.75;;;17.78;
46015;BME280;36844;51.898;-0.874;2023-04-27T11:24:48;100342.78;;;17.81;
46015;BME280;36844;51.898;-0.874;2023-04-27T11:27:13;100348.16;;;17.81;
46015;BME280;36844;51.898;-0.874;2023-04-27T11:29:38;100338.13;;;17.81;
46015;BME280;36844;51.898;-0.874;2023-04-27T11:32:04;100343.13;;;17.83;
46015;BME280;36844;51.898;-0.874;2023-04-27T11:34:29;100340.78;;;17.85;
46015;BME280;36844;51.898;-0.874;2023-04-27T11:37:05;100340.41;;;17.86;
46015;BME280;36844;51.898;-0.874;2023-04-27T11:39:37;100331.94;;;17.88;
46015;BME280;36844;51.898;-0.874;2023-04-27T11:45:00;100327.28;;;17.92;
46015;BME280;36844;51.898;-0.874;2023-04-27T11:47:29;100322.25;;;17.94;
46015;BME280;36844;51.898;-0.874;2023-04-27T11:49:55;100319.56;;;17.97;
46015;BME280;36844;51.898;-0.874;2023-04-27T11:52:42;100317.19;;;17.99;
46015;BME280;36844;51.898;-0.874;2023-04-27T11:55:06;100309.06;;;18.03;
46015;BME280;36844;51.898;-0.874;2023-04-27T11:57:34;100305.59;;;18.06;
46015;BME280;36844;51.898;-0.874;2023-04-27T12:00:00;100294.03;;;18.09;
46015;BME280;36844;51.898;-0.874;2023-04-27T12:02:26;100298.63;;;18.12;
46015;BME280;36844;51.898;-0.874;2023-04-27T12:04:52;100296.66;;;18.16;
46015;BME280;36844;51.898;-0.874;2023-04-27T12:07:18;100280.06;;;18.17;
46015;BME280;36844;51.898;-0.874;2023-04-27T12:09:43;100273.91;;;18.20;
46015;BME280;36844;51.898;-0.874;2023-04-27T12:12:09;100272.72;;;18.21;
46015;BME280;36844;51.898;-0.874;2023-04-27T12:14:34;100269.22;;;18.24;
46015;BME280;36844;51.898;-0.874;2023-04-27T12:17:00;100263.44;;;18.26;
46015;BME280;36844;51.898;-0.874;2023-04-27T12:19:25;100263.06;;;18.27;
46015;BME280;36844;51.898;-0.874;2023-04-27T12:21:51;100251.06;;;18.28;
46015;BME280;36844;51.898;-0.874;2023-04-27T12:24:17;100248.75;;;18.30;
46015;BME280;36844;51.898;-0.874;2023-04-27T12:26:42;100242.97;;;18.32;
46015;BME280;36844;51.898;-0.874;2023-04-27T12:29:07;100251.41;;;18.34;
46015;BME280;36844;51.898;-0.874;2023-04-27T12:31:32;100247.56;;;18.35;
46015;BME280;36844;51.898;-0.874;2023-04-27T12:33:58;100237.13;;;18.37;
46015;BME280;36844;51.898;-0.874;2023-04-27T12:36:23;100242.13;;;18.38;
46015;BME280;36844;51.898;-0.874;2023-04-27T12:38:48;100250.97;;;18.39;
46015;BME280;36844;51.898;-0.874;2023-04-27T12:41:14;100249.78;;;18.40;
46015;BME280;36844;51.898;-0.874;2023-04-27T12:43:39;100251.31;;;18.41;
46015;BME280;36844;51.898;-0.874;2023-04-27T12:46:05;100256.31;;;18.42;
46015;BME280;36844;51.898;-0.874;2023-04-27T12:48:30;100248.22;;;18.42;
46015;BME280;36844;51.898;-0.874;2023-04-27T12:50:55;100259.78;;;18.43;
46015;BME280;36844;51.898;-0.874;2023-04-27T12:53:21;100253.97;;;18.44;
46015;BME280;36844;51.898;-0.874;2023-04-27T12:55:46;100245.13;;;18.44;
46015;BME280;36844;51.898;-0.874;2023-04-27T12:58:11;100247.81;;;18.44;
46015;BME280;36844;51.898;-0.874;2023-04-27T13:00:37;100245.47;;;18.46;
46015;BME280;36844;51.898;-0.874;2023-04-27T13:03:02;100240.09;;;18.46;
46015;BME280;36844;51.898;-0.874;2023-04-27T13:05:28;100245.47;;;18.46;
46015;BME280;36844;51.898;-0.874;2023-04-27T13:07:53;100241.63;;;18.47;
46015;BME280;36844;51.898;-0.874;2023-04-27T13:10:18;100235.09;;;18.44;
46015;BME280;36844;51.898;-0.874;2023-04-27T13:12:44;100241.22;;;18.48;
46015;BME280;36844;51.898;-0.874;2023-04-27T13:15:09;100240.47;;;18.48;
46015;BME280;36844;51.898;-0.874;2023-04-27T13:17:35;100234.28;;;18.47;
46015;BME280;36844;51.898;-0.874;2023-04-27T13:20:00;100239.31;;;18.49;
46015;BME280;36844;51.898;-0.874;2023-04-27T13:22:25;100219.66;;;18.48;
46015;BME280;36844;51.898;-0.874;2023-04-27T13:24:51;100222.34;;;18.48;
46015;BME280;36844;51.898;-0.874;2023-04-27T13:27:16;100225.81;;;18.49;
46015;BME280;36844;51.898;-0.874;2023-04-27T13:29:42;100235.06;;;18.48;
46015;BME280;36844;51.898;-0.874;2023-04-27T13:32:07;100240.47;;;18.48;
46015;BME280;36844;51.898;-0.874;2023-04-27T13:34:32;100229.66;;;18.48;
46015;BME280;36844;51.898;-0.874;2023-04-27T13:36:58;100232.38;;;18.48;